createdAt,value
2023-04-18T00:01:38.680Z,102115.66
2023-04-18T00:04:09.428Z,102110.38
2023-04-18T00:06:40.209Z,102117.56
2023-04-18T00:09:10.731Z,102112.56
2023-04-18T00:11:41.015Z,102127.81
2023-04-18T00:14:12.170Z,102121.88
2023-04-18T00:16:48.871Z,102113.88
2023-04-18T00:19:19.152Z,102118.88
2023-04-18T00:21:49.641Z,102121.28
2023-04-18T00:24:20.034Z,102129.91
2023-04-18T00:26:50.241Z,102132.13
2023-04-18T00:29:20.272Z,102128.31
2023-04-18T00:31:53.368Z,102103.25
2023-04-18T00:34:23.613Z,102132.59
2023-04-18T00:36:56.675Z,102118.06
2023-04-18T00:39:26.815Z,102131.91
2023-04-18T00:41:57.308Z,102115.09
2023-04-18T00:44:27.357Z,102132.31
2023-04-18T00:47:00.292Z,102132.31
2023-04-18T00:49:31.077Z,102130.50
2023-04-18T00:52:02.482Z,102125.69
2023-04-18T00:54:33.194Z,102080.41
2023-04-18T00:57:03.367Z,102121.09
2023-04-18T00:59:33.792Z,102121.41
2023-04-18T01:02:07.513Z,102126.22
2023-04-18T01:04:38.010Z,102115.69
2023-04-18T01:07:08.735Z,102127.31
2023-04-18T01:09:42.329Z,102122.78
2023-04-18T01:12:14.960Z,102120.47
2023-04-18T01:14:49.047Z,102124.91
2023-04-18T01:17:23.700Z,102121.31
2023-04-18T01:19:55.170Z,102121.78
2023-04-18T01:22:25.754Z,102126.38
2023-04-18T01:24:58.944Z,102118.84
2023-04-18T01:27:29.304Z,102124.28
2023-04-18T01:29:59.705Z,102106.97
2023-04-18T01:32:33.367Z,102113.47
2023-04-18T01:35:04.144Z,102121.16
2023-04-18T01:37:34.909Z,102128.88
2023-04-18T01:40:09.546Z,102110.88
2023-04-18T01:42:41.252Z,102111.25
2023-04-18T01:45:16.181Z,102112.84
2023-04-18T01:47:46.801Z,102108.47
2023-04-18T01:50:17.485Z,102116.75
2023-04-18T01:52:47.987Z,102113.34
2023-04-18T01:55:22.716Z,102109.03
2023-04-18T01:57:53.686Z,102102.66
2023-04-18T02:00:24.793Z,102104.22
2023-04-18T02:02:54.951Z,102099.22
2023-04-18T02:05:27.323Z,102099.72
2023-04-18T02:07:57.981Z,102103.84
2023-04-18T02:10:31.172Z,102105.34
2023-04-18T02:13:01.312Z,102111.72
2023-04-18T02:15:31.555Z,102105.41
2023-04-18T02:18:02.827Z,102098.59
2023-04-18T02:20:35.108Z,102102.38
2023-04-18T02:23:05.983Z,102118.16
2023-04-18T02:25:38.832Z,102115.53
2023-04-18T02:28:09.083Z,102107.72
2023-04-18T02:30:39.628Z,102091.28
2023-04-18T02:33:09.884Z,102116.28
2023-04-18T02:35:40.962Z,102106.75
2023-04-18T02:38:14.155Z,102113.13
2023-04-18T02:40:47.472Z,102113.13
2023-04-18T02:43:17.966Z,102096.91
2023-04-18T02:45:48.300Z,102109.97
2023-04-18T02:48:18.724Z,102107.94
2023-04-18T02:50:49.426Z,102106.72
2023-04-18T02:53:19.978Z,102065.63
2023-04-18T02:55:59.344Z,102121.16
2023-04-18T02:58:40.303Z,102119.84
2023-04-18T03:01:32.225Z,102122.63
2023-04-18T03:04:13.167Z,102098.47
2023-04-18T03:06:48.040Z,102124.69
2023-04-18T03:09:19.327Z,102119.00
2023-04-18T03:11:56.889Z,102114.00
2023-04-18T03:14:30.485Z,102123.53
2023-04-18T03:17:00.833Z,102126.63
2023-04-18T03:19:37.487Z,102126.53
2023-04-18T03:22:11.750Z,102123.38
2023-04-18T03:24:49.375Z,102127.19
2023-04-18T03:27:24.400Z,102117.47
2023-04-18T03:29:54.762Z,102133.69
2023-04-18T03:32:26.156Z,102124.78
2023-04-18T03:34:57.187Z,102120.50
2023-04-18T03:37:27.527Z,102136.31
2023-04-18T03:39:59.723Z,102132.38
2023-04-18T03:42:34.425Z,102127.13
2023-04-18T03:45:04.506Z,102129.63
2023-04-18T03:47:38.184Z,102133.97
2023-04-18T03:50:09.931Z,102126.66
2023-04-18T03:52:41.132Z,102137.56
2023-04-18T03:55:12.349Z,102132.13
2023-04-18T03:57:45.132Z,102138.97
2023-04-18T04:00:22.735Z,102147.38
2023-04-18T04:03:03.086Z,102137.38
2023-04-18T04:05:33.340Z,102141.94
2023-04-18T04:08:03.510Z,102144.34
2023-04-18T04:10:33.713Z,102135.34
2023-04-18T04:13:06.612Z,102142.28
2023-04-18T04:15:40.391Z,102145.19
2023-04-18T04:18:13.449Z,102145.19
2023-04-18T04:20:49.031Z,102130.94
2023-04-18T04:23:33.286Z,102136.84
2023-04-18T04:26:04.850Z,102148.44
2023-04-18T04:28:49.313Z,102139.34
2023-04-18T04:31:23.240Z,102137.97
2023-04-18T04:33:53.920Z,102143.69
2023-04-18T04:36:30.288Z,102150.19
2023-04-18T04:39:02.905Z,102153.78
2023-04-18T04:41:41.689Z,102153.59
2023-04-18T04:44:18.100Z,102154.06
2023-04-18T04:46:50.033Z,102160.38
2023-04-18T04:49:24.951Z,102164.28
2023-04-18T04:51:55.139Z,102163.41
2023-04-18T04:54:25.435Z,102151.56
2023-04-18T04:56:55.800Z,102168.41
2023-04-18T04:59:41.532Z,102166.78
2023-04-18T05:02:11.904Z,102168.78
2023-04-18T05:04:42.485Z,102165.38
2023-04-18T05:07:12.986Z,102169.19
2023-04-18T05:09:43.180Z,102178.53
2023-04-18T05:12:13.479Z,102172.41
2023-04-18T05:14:46.689Z,102181.41
2023-04-18T05:17:16.847Z,102171.94
2023-04-18T05:19:47.232Z,102176.94
2023-04-18T05:22:17.567Z,102183.25
2023-04-18T05:24:47.824Z,102173.22
2023-04-18T05:27:18.294Z,102181.84
2023-04-18T05:29:51.152Z,102187.66
2023-04-18T05:32:21.894Z,102186.75
2023-04-18T05:34:52.306Z,102191.47
2023-04-18T05:37:22.740Z,102195.38
2023-04-18T05:39:52.990Z,102194.59
2023-04-18T05:42:23.121Z,102189.78
2023-04-18T05:44:55.887Z,102201.31
2023-04-18T05:47:28.710Z,102197.22
2023-04-18T05:49:59.000Z,102195.59
2023-04-18T05:52:29.268Z,102193.81
2023-04-18T05:54:59.651Z,102205.31
2023-04-18T05:57:29.954Z,102205.75
2023-04-18T06:00:02.848Z,102201.88
2023-04-18T06:02:43.007Z,102198.66
2023-04-18T06:05:15.401Z,102213.19
2023-04-18T06:07:46.218Z,102221.78
2023-04-18T06:10:16.546Z,102217.28
2023-04-18T06:12:46.636Z,102217.06
2023-04-18T06:15:19.658Z,102223.97
2023-04-18T06:17:49.960Z,102212.56
2023-04-18T06:20:20.234Z,102218.09
2023-04-18T06:22:50.677Z,102215.38
2023-04-18T06:25:21.075Z,102221.00
2023-04-18T06:27:51.205Z,102236.91
2023-04-18T06:30:24.174Z,102224.69
2023-04-18T06:32:54.634Z,102229.41
2023-04-18T06:35:26.496Z,102230.81
2023-04-18T06:37:56.810Z,102238.78
2023-04-18T06:40:27.185Z,102242.22
2023-04-18T06:42:57.261Z,102233.69
2023-04-18T06:45:30.325Z,102228.94
2023-04-18T06:48:02.043Z,102240.97
2023-04-18T06:50:32.591Z,102231.16
2023-04-18T06:53:02.775Z,102226.16
2023-04-18T06:55:37.056Z,102233.31
2023-04-18T06:58:08.817Z,102239.16
2023-04-18T07:00:41.600Z,102214.78
2023-04-18T07:03:13.866Z,102252.09
2023-04-18T07:05:44.435Z,102255.06
2023-04-18T07:08:14.627Z,102246.75
2023-04-18T07:10:46.981Z,102253.34
2023-04-18T07:13:17.512Z,102199.22
2023-04-18T07:15:50.534Z,102251.47
2023-04-18T07:18:26.765Z,102247.84
2023-04-18T07:21:07.958Z,102261.88
2023-04-18T07:23:38.347Z,102246.47
2023-04-18T07:26:10.229Z,102251.94
2023-04-18T07:28:40.630Z,102258.88
2023-04-18T07:31:14.855Z,102261.78
2023-04-18T07:33:45.430Z,102254.75
2023-04-18T07:36:15.605Z,102261.97
2023-04-18T07:38:46.522Z,102249.88
2023-04-18T07:41:16.976Z,102256.09
2023-04-18T07:43:47.481Z,102259.28
2023-04-18T07:46:20.336Z,102256.09
2023-04-18T07:48:50.928Z,102252.38
2023-04-18T07:51:21.105Z,102247.56
2023-04-18T07:53:51.317Z,102264.34
2023-04-18T07:56:21.969Z,102262.75
2023-04-18T07:58:52.324Z,102260.22
2023-04-18T08:01:27.360Z,102265.97
2023-04-18T08:04:02.044Z,102262.66
2023-04-18T08:06:32.572Z,102264.94
2023-04-18T08:09:04.851Z,102260.13
2023-04-18T08:11:35.695Z,102249.59
2023-04-18T08:14:05.943Z,102269.41
2023-04-18T08:16:40.023Z,102266.03
2023-04-18T08:19:12.296Z,102269.66
2023-04-18T08:21:46.009Z,102271.84
2023-04-18T08:24:16.292Z,102260.72
2023-04-18T08:26:46.541Z,102279.44
2023-04-18T08:29:16.743Z,102280.34
2023-04-18T08:31:49.579Z,102269.53
2023-04-18T08:34:19.768Z,102265.16
2023-04-18T08:36:50.126Z,102264.66
2023-04-18T08:39:20.476Z,102268.13
2023-04-18T08:41:57.545Z,102273.41
2023-04-18T08:44:27.955Z,102276.00
2023-04-18T08:47:01.957Z,102272.31
2023-04-18T08:49:34.159Z,102257.56
2023-04-18T08:52:05.622Z,102254.09
2023-04-18T08:54:38.354Z,102262.56
2023-04-18T08:57:09.262Z,102270.00
2023-04-18T08:59:40.449Z,102265.22
2023-04-18T09:02:13.370Z,102250.97
2023-04-18T09:04:46.107Z,102267.03
2023-04-18T09:07:19.058Z,102269.38
2023-04-18T09:09:51.040Z,102268.06
2023-04-18T09:12:23.256Z,102265.25
2023-04-18T09:14:57.820Z,102271.91
2023-04-18T09:17:42.474Z,102273.94
2023-04-18T09:20:15.582Z,102269.28
2023-04-18T09:22:48.923Z,102258.03
2023-04-18T09:25:29.697Z,102263.00
2023-04-18T09:28:01.314Z,102267.78
2023-04-18T09:30:38.433Z,102268.50
2023-04-18T09:33:12.967Z,102274.28
2023-04-18T09:35:43.012Z,102273.34
2023-04-18T09:38:13.189Z,102279.63
2023-04-18T09:40:43.354Z,102270.28
2023-04-18T09:43:23.457Z,102263.81
2023-04-18T09:45:54.908Z,102252.59
2023-04-18T09:48:27.863Z,102267.41
2023-04-18T09:50:58.222Z,102267.59
2023-04-18T09:53:29.392Z,102251.00
2023-04-18T09:56:00.610Z,102257.69
2023-04-18T09:58:35.537Z,102269.34
2023-04-18T10:01:07.657Z,102263.91
2023-04-18T10:03:47.412Z,102257.47
2023-04-18T10:06:19.669Z,102265.84
2023-04-18T10:08:51.914Z,102268.00
2023-04-18T10:11:22.179Z,102259.53
2023-04-18T10:13:56.157Z,102270.16
2023-04-18T10:16:26.953Z,102267.75
2023-04-18T10:18:59.813Z,102278.88
2023-04-18T10:21:31.725Z,102258.03
2023-04-18T10:24:02.094Z,102267.06
2023-04-18T10:26:50.546Z,102275.50
2023-04-18T10:29:20.936Z,102274.25
2023-04-18T10:31:51.893Z,102270.84
2023-04-18T10:34:24.797Z,102267.41
2023-04-18T10:37:08.740Z,102269.75
2023-04-18T10:39:54.043Z,102264.72
2023-04-18T10:43:02.652Z,102260.44
2023-04-18T10:45:36.667Z,102259.38
2023-04-18T10:48:29.544Z,102260.25
2023-04-18T10:51:26.551Z,102267.47
2023-04-18T10:54:00.578Z,102260.81
2023-04-18T10:56:31.471Z,102252.19
2023-04-18T10:59:05.638Z,102258.09
2023-04-18T11:01:40.723Z,102260.78
2023-04-18T11:04:16.573Z,102249.09
2023-04-18T11:06:55.094Z,102258.47
2023-04-18T11:09:25.459Z,102249.81
2023-04-18T11:12:10.042Z,102266.00
2023-04-18T11:14:43.926Z,102246.19
2023-04-18T11:17:22.463Z,102249.22
2023-04-18T11:19:53.325Z,102241.84
2023-04-18T11:22:26.268Z,102243.94
2023-04-18T11:25:02.046Z,102241.03
2023-04-18T11:27:32.750Z,102240.03
2023-04-18T11:30:02.886Z,102227.41
2023-04-18T11:32:33.621Z,102243.19
2023-04-18T11:35:03.965Z,102249.19
2023-04-18T11:37:38.148Z,102230.88
2023-04-18T11:40:09.239Z,102237.88
2023-04-18T11:42:41.500Z,102242.03
2023-04-18T11:45:16.150Z,102225.28
2023-04-18T11:47:46.980Z,102232.63
2023-04-18T11:50:17.558Z,102247.97
2023-04-18T11:52:54.181Z,102243.47
2023-04-18T11:55:27.420Z,102241.81
2023-04-18T11:57:59.052Z,102245.31
2023-04-18T12:00:37.717Z,102241.94
2023-04-18T12:03:12.648Z,102243.81
2023-04-18T12:05:45.399Z,102260.06
2023-04-18T12:08:26.029Z,102251.97
2023-04-18T12:10:58.014Z,102233.63
2023-04-18T12:13:29.776Z,102248.56
2023-04-18T12:16:00.871Z,102242.81
2023-04-18T12:18:31.705Z,102238.13
2023-04-18T12:21:02.230Z,102240.44
2023-04-18T12:23:37.229Z,102240.47
2023-04-18T12:26:09.124Z,102248.94
2023-04-18T12:28:39.536Z,102233.25
2023-04-18T12:31:09.884Z,102238.97
2023-04-18T12:33:40.242Z,102226.00
2023-04-18T12:36:11.380Z,102236.94
2023-04-18T12:38:44.764Z,102231.69
2023-04-18T12:41:14.945Z,102233.81
2023-04-18T12:43:45.660Z,102240.03
2023-04-18T12:46:15.910Z,102237.94
2023-04-18T12:48:46.357Z,102237.06
2023-04-18T12:51:16.890Z,102232.94
2023-04-18T12:53:49.628Z,102230.06
2023-04-18T12:56:19.836Z,102230.16
2023-04-18T12:58:50.080Z,102236.94
2023-04-18T13:01:21.135Z,102227.47
2023-04-18T13:04:03.936Z,102240.75
2023-04-18T13:06:41.582Z,102202.16
2023-04-18T13:09:17.156Z,102234.47
2023-04-18T13:11:49.557Z,102233.50
2023-04-18T13:14:20.091Z,102222.13
2023-04-18T13:16:50.228Z,102237.69
2023-04-18T13:19:20.581Z,102231.59
2023-04-18T13:21:51.855Z,102231.22
2023-04-18T13:24:24.794Z,102210.56
2023-04-18T13:26:55.128Z,102234.13
2023-04-18T13:29:25.349Z,102231.72
2023-04-18T13:31:55.832Z,102228.88
2023-04-18T13:34:26.065Z,102233.38
2023-04-18T13:36:57.878Z,102237.53
2023-04-18T13:39:32.232Z,102227.19
2023-04-18T13:42:03.465Z,102204.06
2023-04-18T13:44:34.118Z,102226.72
2023-04-18T13:47:05.188Z,102222.38
2023-04-18T13:49:37.420Z,102219.00
2023-04-18T13:52:08.547Z,102213.50
2023-04-18T13:54:41.536Z,102216.50
2023-04-18T13:57:14.889Z,102208.66
2023-04-18T13:59:45.168Z,102209.22
2023-04-18T14:02:15.992Z,102191.16
2023-04-18T14:04:46.888Z,102212.56
2023-04-18T14:07:17.219Z,102211.56
2023-04-18T14:09:50.816Z,102195.97
2023-04-18T14:12:21.925Z,102204.06
2023-04-18T14:14:52.210Z,102199.25
2023-04-18T14:17:22.733Z,102192.41
2023-04-18T14:19:52.979Z,102191.19
2023-04-18T14:22:23.522Z,102186.53
2023-04-18T14:24:56.790Z,102184.59
2023-04-18T14:27:27.576Z,102182.09
2023-04-18T14:29:57.739Z,102184.66
2023-04-18T14:32:28.238Z,102166.06
2023-04-18T14:34:59.220Z,102181.31
2023-04-18T14:37:29.470Z,102181.41
2023-04-18T14:40:02.356Z,102178.56
2023-04-18T14:42:32.485Z,102186.41
2023-04-18T14:45:03.344Z,102175.38
2023-04-18T14:47:34.962Z,102174.97
2023-04-18T14:50:05.087Z,102173.19
2023-04-18T14:52:35.802Z,102172.03
2023-04-18T14:55:10.076Z,102178.72
2023-04-18T14:57:41.184Z,102167.13
2023-04-18T15:00:13.203Z,102168.94
2023-04-18T15:02:43.943Z,102146.75
2023-04-18T15:05:15.344Z,102172.69
2023-04-18T15:07:46.228Z,102151.41
2023-04-18T15:10:19.062Z,102161.09
2023-04-18T15:12:51.479Z,102150.50
2023-04-18T15:15:22.963Z,102163.97
2023-04-18T15:17:53.079Z,102158.16
2023-04-18T15:20:24.094Z,102158.25
2023-04-18T15:22:54.697Z,102153.09
2023-04-18T15:25:27.951Z,102149.44
2023-04-18T15:27:58.401Z,102153.59
2023-04-18T15:30:29.227Z,102147.00
2023-04-18T15:32:59.391Z,102165.19
2023-04-18T15:35:29.830Z,102162.56
2023-04-18T15:38:00.432Z,102158.81
2023-04-18T15:40:33.384Z,102157.59
2023-04-18T15:43:04.255Z,102152.63
2023-04-18T15:45:34.489Z,102162.66
2023-04-18T15:48:04.789Z,102159.97
2023-04-18T15:50:35.131Z,102159.16
2023-04-18T15:53:05.485Z,102166.81
2023-04-18T15:55:38.532Z,102167.72
2023-04-18T15:58:08.950Z,102154.25
2023-04-18T16:00:50.906Z,102157.34
2023-04-18T16:03:21.412Z,102159.31
2023-04-18T16:05:51.928Z,102157.53
2023-04-18T16:08:22.274Z,102150.66
2023-04-18T16:10:55.451Z,102142.56
2023-04-18T16:13:25.777Z,102157.53
2023-04-18T16:15:56.274Z,102166.78
2023-04-18T16:18:26.496Z,102171.53
2023-04-18T16:20:56.734Z,102162.19
2023-04-18T16:23:27.946Z,102150.91
2023-04-18T16:26:00.875Z,102149.63
2023-04-18T16:28:31.089Z,102169.53
2023-04-18T16:31:01.403Z,102169.50
2023-04-18T16:33:31.656Z,102165.72
2023-04-18T16:36:03.493Z,102162.47
2023-04-18T16:38:33.799Z,102168.84
2023-04-18T16:41:09.611Z,102167.84
2023-04-18T16:43:40.014Z,102168.25
2023-04-18T16:46:12.109Z,102162.78
2023-04-18T16:48:42.513Z,102164.56
2023-04-18T16:51:13.320Z,102148.44
2023-04-18T16:53:44.764Z,102168.31
2023-04-18T16:56:17.817Z,102174.50
2023-04-18T16:58:48.576Z,102183.38
2023-04-18T17:01:20.653Z,102167.78
2023-04-18T17:03:51.650Z,102178.97
2023-04-18T17:06:24.999Z,102172.69
2023-04-18T17:08:55.915Z,102183.31
2023-04-18T17:11:30.306Z,102174.75
2023-04-18T17:14:00.841Z,102186.63
2023-04-18T17:16:30.996Z,102194.59
2023-04-18T17:19:01.855Z,102194.47
2023-04-18T17:21:33.553Z,102181.34
2023-04-18T17:24:04.114Z,102184.25
2023-04-18T17:26:37.638Z,102187.16
2023-04-18T17:29:07.862Z,102180.16
2023-04-18T17:31:38.043Z,102193.38
2023-04-18T17:34:08.547Z,102192.28
2023-04-18T17:36:38.893Z,102189.59
2023-04-18T17:39:09.917Z,102190.16
2023-04-18T17:41:42.576Z,102187.09
2023-04-18T17:44:12.847Z,102186.59
2023-04-18T17:46:43.616Z,102195.03
2023-04-18T17:49:14.844Z,102187.31
2023-04-18T17:51:46.366Z,102195.41
2023-04-18T17:54:21.351Z,102193.75
2023-04-18T17:56:56.959Z,102197.94
2023-04-18T17:59:28.491Z,102195.56
2023-04-18T18:01:59.745Z,102194.34
2023-04-18T18:04:30.650Z,102197.06
2023-04-18T18:07:04.317Z,102189.13
2023-04-18T18:09:34.482Z,102187.19
2023-04-18T18:12:07.627Z,102195.63
2023-04-18T18:14:37.958Z,102196.19
2023-04-18T18:17:08.181Z,102196.38
2023-04-18T18:19:39.098Z,102201.41
2023-04-18T18:22:09.715Z,102195.28
2023-04-18T18:24:40.152Z,102198.53
2023-04-18T18:27:13.060Z,102204.09
2023-04-18T18:29:43.325Z,102200.66
2023-04-18T18:32:13.471Z,102201.03
2023-04-18T18:34:43.647Z,102201.75
2023-04-18T18:37:13.917Z,102201.03
2023-04-18T18:39:44.106Z,102194.56
2023-04-18T18:42:17.056Z,102214.38
2023-04-18T18:44:47.363Z,102203.19
2023-04-18T18:47:17.756Z,102209.16
2023-04-18T18:49:48.948Z,102197.81
2023-04-18T18:52:19.354Z,102198.34
2023-04-18T18:54:49.788Z,102198.94
2023-04-18T18:57:22.694Z,102202.88
2023-04-18T18:59:56.319Z,102205.38
2023-04-18T19:02:26.616Z,102212.94
2023-04-18T19:04:57.172Z,102205.41
2023-04-18T19:07:29.524Z,102216.97
2023-04-18T19:10:01.828Z,102194.28
2023-04-18T19:12:34.846Z,102216.28
2023-04-18T19:15:05.534Z,102197.72
2023-04-18T19:17:36.134Z,102224.94
2023-04-18T19:20:07.085Z,102228.19
2023-04-18T19:22:37.580Z,102213.22
2023-04-18T19:25:09.025Z,102215.19
2023-04-18T19:27:41.821Z,102234.31
2023-04-18T19:30:13.047Z,102217.00
2023-04-18T19:32:43.537Z,102220.97
2023-04-18T19:35:13.964Z,102235.38
2023-04-18T19:37:49.039Z,102212.13
2023-04-18T19:40:20.078Z,102226.16
2023-04-18T19:42:55.359Z,102234.31
2023-04-18T19:45:26.320Z,102235.00
2023-04-18T19:47:57.069Z,102243.31
2023-04-18T19:50:28.026Z,102232.66
2023-04-18T19:52:58.217Z,102235.91
2023-04-18T19:55:28.817Z,102234.13
2023-04-18T19:58:02.711Z,102239.69
2023-04-18T20:00:34.290Z,102236.09
2023-04-18T20:03:04.710Z,102237.00
2023-04-18T20:05:35.136Z,102241.84
2023-04-18T20:08:05.655Z,102243.13
2023-04-18T20:10:37.639Z,102228.88
2023-04-18T20:13:11.478Z,102247.97
2023-04-18T20:15:42.440Z,102247.63
2023-04-18T20:18:12.883Z,102250.84
2023-04-18T20:20:43.313Z,102259.88
2023-04-18T20:23:14.792Z,102243.31
2023-04-18T20:25:45.028Z,102248.91
2023-04-18T20:28:18.042Z,102254.28
2023-04-18T20:30:48.563Z,102258.44
2023-04-18T20:33:18.940Z,102254.81
2023-04-18T20:35:49.709Z,102255.03
2023-04-18T20:38:23.613Z,102257.53
2023-04-18T20:40:59.589Z,102242.97
2023-04-18T20:43:55.710Z,102217.78
2023-04-18T20:46:32.078Z,102256.81
2023-04-18T20:49:09.605Z,102260.78
2023-04-18T20:51:40.916Z,102267.25
2023-04-18T20:54:11.375Z,102257.75
2023-04-18T20:56:41.377Z,102254.84
2023-04-18T20:59:14.086Z,102261.53
2023-04-18T21:01:44.404Z,102268.34
2023-04-18T21:04:14.770Z,102264.06
2023-04-18T21:06:45.243Z,102269.78
2023-04-18T21:09:15.793Z,102262.41
2023-04-18T21:11:46.057Z,102272.66
2023-04-18T21:14:20.117Z,102267.47
2023-04-18T21:16:50.229Z,102266.03
2023-04-18T21:19:20.281Z,102275.38
2023-04-18T21:21:50.473Z,102268.38
2023-04-18T21:24:20.627Z,102272.34
2023-04-18T21:26:50.956Z,102271.97
2023-04-18T21:29:24.084Z,102273.22
2023-04-18T21:31:54.362Z,102270.34
2023-04-18T21:34:24.555Z,102273.22
2023-04-18T21:36:54.668Z,102272.13
2023-04-18T21:39:25.043Z,102271.06
2023-04-18T21:41:55.543Z,102269.97
2023-04-18T21:44:28.401Z,102262.41
2023-04-18T21:46:59.647Z,102268.53
2023-04-18T21:49:29.907Z,102265.28
2023-04-18T21:52:00.131Z,102264.19
2023-04-18T21:54:30.471Z,102228.22
2023-04-18T21:57:00.955Z,102269.78
2023-04-18T21:59:34.174Z,102265.63
2023-04-18T22:02:05.141Z,102250.88
2023-04-18T22:04:38.256Z,102244.41
2023-04-18T22:07:09.012Z,102260.94
2023-04-18T22:09:39.321Z,102250.88
2023-04-18T22:12:09.658Z,102259.50
2023-04-18T22:14:49.443Z,102258.06
2023-04-18T22:17:21.083Z,102259.13
2023-04-18T22:19:51.548Z,102261.47
2023-04-18T22:22:22.254Z,102256.09
2023-04-18T22:24:52.475Z,102260.22
2023-04-18T22:27:22.752Z,102256.44
2023-04-18T22:29:55.848Z,102259.47
2023-04-18T22:32:26.091Z,102261.63
2023-04-18T22:34:56.923Z,102251.16
2023-04-18T22:37:27.170Z,102265.19
2023-04-18T22:39:57.524Z,102259.22
2023-04-18T22:42:29.895Z,102269.28
2023-04-18T22:45:03.589Z,102269.44
2023-04-18T22:47:34.831Z,102268.88
2023-04-18T22:50:05.214Z,102271.94
2023-04-18T22:52:35.614Z,102274.59
2023-04-18T22:55:06.977Z,102270.97
2023-04-18T22:57:37.180Z,102269.69
2023-04-18T23:00:13.846Z,102271.09
2023-04-18T23:02:44.443Z,102267.50
2023-04-18T23:05:16.277Z,102272.91
2023-04-18T23:07:46.479Z,102285.91
2023-04-18T23:10:19.452Z,102273.31
2023-04-18T23:12:50.077Z,102263.19
2023-04-18T23:15:23.906Z,102281.16
2023-04-18T23:17:55.519Z,102270.00
2023-04-18T23:20:25.963Z,102268.97
2023-04-18T23:22:56.322Z,102265.34
2023-04-18T23:25:29.542Z,102260.31
2023-04-18T23:27:59.733Z,102261.75
2023-04-18T23:30:32.856Z,102237.94
2023-04-18T23:33:03.464Z,102261.69
2023-04-18T23:35:33.838Z,102261.00
2023-04-18T23:38:04.049Z,102256.66
2023-04-18T23:40:34.222Z,102249.81
2023-04-18T23:43:04.620Z,102256.63
2023-04-18T23:45:37.595Z,102251.25
2023-04-18T23:48:07.810Z,102258.56
2023-04-18T23:50:39.487Z,102241.66
2023-04-18T23:53:09.709Z,102247.56
2023-04-18T23:55:40.419Z,102247.22
2023-04-18T23:58:10.558Z,102254.38
